Richland, Missouri
Current Conditions -  °F | °C
As of 5:58 AM on Sunday 21 Dec 2014 (Local Time) from KTBN Reporting Station
Overcast Overcast  
Wind Chill: 35°   Ceiling: 2600
Heat Index: 39°   Visibility: 10mi
Dew Point: 38°   Wind: 5mph
Humidity: 99%   Direction: 140°SE
Pressure: 30.13"   Gusts: NA
Location:  37.86°N, 92.4°W
Report Text: KTBN 211158Z AUTO 14004KT 10SM OVC026 04/04 A3013 RMK AO2 SLP213 T00380036 10043 20038 55005 $
Loading
Personal Weather Stations






























Interactive Weather Map New forecast layout! Learn more

10-Day Weather Forecast

Advertisements
Track Severe Weather on mobile